sensor_id;sensor_type;location;lat;lon;timestamp;P1;durP1;ratioP1;P2;durP2;ratioP2
70850;SDS011;58475;49.662;9.636;2022-09-21T00:00:27;8.20;;;3.50;;
70850;SDS011;58475;49.662;9.636;2022-09-21T00:02:56;6.85;;;2.97;;
70850;SDS011;58475;49.662;9.636;2022-09-21T00:05:22;6.22;;;3.22;;
70850;SDS011;58475;49.662;9.636;2022-09-21T00:07:47;6.72;;;3.47;;
70850;SDS011;58475;49.662;9.636;2022-09-21T00:10:13;10.68;;;3.35;;
70850;SDS011;58475;49.662;9.636;2022-09-21T00:12:39;10.32;;;3.60;;
70850;SDS011;58475;49.662;9.636;2022-09-21T00:15:05;7.13;;;3.60;;
70850;SDS011;58475;49.662;9.636;2022-09-21T00:17:32;7.90;;;3.42;;
70850;SDS011;58475;49.662;9.636;2022-09-21T00:19:57;7.85;;;3.50;;
70850;SDS011;58475;49.662;9.636;2022-09-21T00:22:22;10.32;;;3.80;;
70850;SDS011;58475;49.662;9.636;2022-09-21T00:24:47;8.70;;;3.22;;
70850;SDS011;58475;49.662;9.636;2022-09-21T00:27:13;23.08;;;4.38;;
70850;SDS011;58475;49.662;9.636;2022-09-21T00:29:38;7.72;;;3.50;;
70850;SDS011;58475;49.662;9.636;2022-09-21T00:32:04;12.32;;;3.25;;
70850;SDS011;58475;49.662;9.636;2022-09-21T00:34:29;11.07;;;3.30;;
70850;SDS011;58475;49.662;9.636;2022-09-21T00:36:56;11.23;;;3.03;;
70850;SDS011;58475;49.662;9.636;2022-09-21T00:39:21;7.53;;;3.00;;
70850;SDS011;58475;49.662;9.636;2022-09-21T00:41:46;11.55;;;3.15;;
70850;SDS011;58475;49.662;9.636;2022-09-21T00:46:49;7.45;;;3.15;;
70850;SDS011;58475;49.662;9.636;2022-09-21T00:49:16;10.25;;;3.25;;
70850;SDS011;58475;49.662;9.636;2022-09-21T00:51:42;5.68;;;3.08;;
70850;SDS011;58475;49.662;9.636;2022-09-21T00:54:10;12.48;;;3.30;;
70850;SDS011;58475;49.662;9.636;2022-09-21T00:56:40;8.95;;;3.10;;
70850;SDS011;58475;49.662;9.636;2022-09-21T00:59:07;11.35;;;3.17;;
70850;SDS011;58475;49.662;9.636;2022-09-21T01:01:34;7.53;;;2.80;;
70850;SDS011;58475;49.662;9.636;2022-09-21T01:04:02;8.70;;;3.33;;
70850;SDS011;58475;49.662;9.636;2022-09-21T01:06:31;5.32;;;3.13;;
70850;SDS011;58475;49.662;9.636;2022-09-21T01:08:58;5.88;;;2.97;;
70850;SDS011;58475;49.662;9.636;2022-09-21T01:11:42;8.45;;;3.08;;
70850;SDS011;58475;49.662;9.636;2022-09-21T01:14:20;7.45;;;3.25;;
70850;SDS011;58475;49.662;9.636;2022-09-21T01:25:13;7.05;;;3.25;;
70850;SDS011;58475;49.662;9.636;2022-09-21T01:28:02;9.63;;;3.47;;
70850;SDS011;58475;49.662;9.636;2022-09-21T01:30:54;12.60;;;4.00;;
70850;SDS011;58475;49.662;9.636;2022-09-21T01:33:35;7.90;;;3.77;;
70850;SDS011;58475;49.662;9.636;2022-09-21T01:36:07;7.55;;;3.58;;
70850;SDS011;58475;49.662;9.636;2022-09-21T01:38:51;7.95;;;3.60;;
70850;SDS011;58475;49.662;9.636;2022-09-21T01:41:21;12.18;;;3.58;;
70850;SDS011;58475;49.662;9.636;2022-09-21T01:43:56;12.77;;;3.97;;
70850;SDS011;58475;49.662;9.636;2022-09-21T01:46:27;11.40;;;3.80;;
70850;SDS011;58475;49.662;9.636;2022-09-21T01:48:56;14.32;;;3.78;;
70850;SDS011;58475;49.662;9.636;2022-09-21T01:51:25;21.17;;;4.35;;
70850;SDS011;58475;49.662;9.636;2022-09-21T01:53:57;8.95;;;3.95;;
70850;SDS011;58475;49.662;9.636;2022-09-21T01:56:35;12.32;;;4.13;;
70850;SDS011;58475;49.662;9.636;2022-09-21T02:01:48;11.27;;;4.03;;
70850;SDS011;58475;49.662;9.636;2022-09-21T02:04:17;8.98;;;3.88;;
70850;SDS011;58475;49.662;9.636;2022-09-21T02:06:44;9.43;;;4.05;;
70850;SDS011;58475;49.662;9.636;2022-09-21T02:09:11;10.85;;;3.53;;
70850;SDS011;58475;49.662;9.636;2022-09-21T02:11:37;10.82;;;3.95;;
70850;SDS011;58475;49.662;9.636;2022-09-21T02:14:06;11.52;;;3.35;;
70850;SDS011;58475;49.662;9.636;2022-09-21T02:16:35;17.02;;;3.50;;
70850;SDS011;58475;49.662;9.636;2022-09-21T02:21:55;6.63;;;3.05;;
70850;SDS011;58475;49.662;9.636;2022-09-21T02:24:31;7.57;;;3.10;;
70850;SDS011;58475;49.662;9.636;2022-09-21T02:27:10;9.90;;;3.17;;
70850;SDS011;58475;49.662;9.636;2022-09-21T02:32:22;6.57;;;3.58;;
70850;SDS011;58475;49.662;9.636;2022-09-21T02:34:57;13.05;;;3.65;;
70850;SDS011;58475;49.662;9.636;2022-09-21T02:37:31;12.23;;;3.67;;
70850;SDS011;58475;49.662;9.636;2022-09-21T02:42:47;27.25;;;4.32;;
70850;SDS011;58475;49.662;9.636;2022-09-21T02:45:25;9.93;;;3.72;;
70850;SDS011;58475;49.662;9.636;2022-09-21T02:47:58;46.90;;;5.22;;
70850;SDS011;58475;49.662;9.636;2022-09-21T02:50:30;22.95;;;4.72;;
70850;SDS011;58475;49.662;9.636;2022-09-21T02:53:01;19.58;;;4.00;;
70850;SDS011;58475;49.662;9.636;2022-09-21T02:55:29;22.05;;;5.93;;
70850;SDS011;58475;49.662;9.636;2022-09-21T02:57:55;15.02;;;4.15;;
70850;SDS011;58475;49.662;9.636;2022-09-21T03:00:21;12.18;;;3.83;;
70850;SDS011;58475;49.662;9.636;2022-09-21T03:02:47;13.38;;;3.40;;
70850;SDS011;58475;49.662;9.636;2022-09-21T03:05:13;7.80;;;3.78;;
70850;SDS011;58475;49.662;9.636;2022-09-21T03:07:39;8.60;;;3.78;;
70850;SDS011;58475;49.662;9.636;2022-09-21T03:10:05;14.48;;;3.85;;
70850;SDS011;58475;49.662;9.636;2022-09-21T03:12:32;27.00;;;3.90;;
70850;SDS011;58475;49.662;9.636;2022-09-21T03:14:57;8.77;;;3.40;;
70850;SDS011;58475;49.662;9.636;2022-09-21T03:17:24;8.13;;;3.38;;
70850;SDS011;58475;49.662;9.636;2022-09-21T03:19:49;10.07;;;3.10;;
70850;SDS011;58475;49.662;9.636;2022-09-21T03:22:14;7.85;;;3.47;;
70850;SDS011;58475;49.662;9.636;2022-09-21T03:24:41;11.27;;;3.28;;
70850;SDS011;58475;49.662;9.636;2022-09-21T03:27:10;18.52;;;3.60;;
70850;SDS011;58475;49.662;9.636;2022-09-21T03:29:36;28.88;;;3.88;;
70850;SDS011;58475;49.662;9.636;2022-09-21T03:32:01;12.63;;;3.58;;
70850;SDS011;58475;49.662;9.636;2022-09-21T03:34:27;21.48;;;3.30;;
70850;SDS011;58475;49.662;9.636;2022-09-21T03:36:53;15.13;;;3.50;;
70850;SDS011;58475;49.662;9.636;2022-09-21T03:39:18;7.63;;;3.20;;
70850;SDS011;58475;49.662;9.636;2022-09-21T03:41:43;11.98;;;3.05;;
70850;SDS011;58475;49.662;9.636;2022-09-21T03:44:09;8.30;;;3.25;;
70850;SDS011;58475;49.662;9.636;2022-09-21T03:46:34;8.52;;;3.33;;
70850;SDS011;58475;49.662;9.636;2022-09-21T03:49:00;15.70;;;3.45;;
70850;SDS011;58475;49.662;9.636;2022-09-21T03:51:27;12.60;;;3.45;;
70850;SDS011;58475;49.662;9.636;2022-09-21T03:53:53;7.22;;;3.00;;
70850;SDS011;58475;49.662;9.636;2022-09-21T03:56:19;12.07;;;3.15;;
70850;SDS011;58475;49.662;9.636;2022-09-21T03:58:45;36.03;;;5.72;;
70850;SDS011;58475;49.662;9.636;2022-09-21T04:01:10;7.25;;;3.22;;
70850;SDS011;58475;49.662;9.636;2022-09-21T04:03:35;7.97;;;3.40;;
70850;SDS011;58475;49.662;9.636;2022-09-21T04:06:07;21.10;;;3.33;;
70850;SDS011;58475;49.662;9.636;2022-09-21T04:08:33;18.08;;;3.83;;
70850;SDS011;58475;49.662;9.636;2022-09-21T04:10:59;18.60;;;3.65;;
70850;SDS011;58475;49.662;9.636;2022-09-21T04:13:24;6.93;;;3.20;;
70850;SDS011;58475;49.662;9.636;2022-09-21T04:15:49;18.67;;;3.30;;
70850;SDS011;58475;49.662;9.636;2022-09-21T04:18:15;10.02;;;3.70;;
70850;SDS011;58475;49.662;9.636;2022-09-21T04:20:40;9.55;;;3.13;;
70850;SDS011;58475;49.662;9.636;2022-09-21T04:23:05;16.40;;;3.50;;
70850;SDS011;58475;49.662;9.636;2022-09-21T04:25:32;9.73;;;3.00;;
70850;SDS011;58475;49.662;9.636;2022-09-21T04:27:57;8.48;;;2.88;;
70850;SDS011;58475;49.662;9.636;2022-09-21T04:30:23;10.60;;;3.10;;
70850;SDS011;58475;49.662;9.636;2022-09-21T04:32:48;5.00;;;2.35;;
70850;SDS011;58475;49.662;9.636;2022-09-21T04:35:14;13.95;;;2.85;;
70850;SDS011;58475;49.662;9.636;2022-09-21T04:37:39;6.03;;;2.50;;
70850;SDS011;58475;49.662;9.636;2022-09-21T04:40:04;10.68;;;2.38;;
70850;SDS011;58475;49.662;9.636;2022-09-21T04:42:31;12.65;;;2.85;;
70850;SDS011;58475;49.662;9.636;2022-09-21T04:44:56;7.78;;;2.65;;
70850;SDS011;58475;49.662;9.636;2022-09-21T04:47:22;9.63;;;2.90;;
70850;SDS011;58475;49.662;9.636;2022-09-21T04:49:49;22.92;;;3.03;;
70850;SDS011;58475;49.662;9.636;2022-09-21T04:52:16;14.05;;;2.88;;
70850;SDS011;58475;49.662;9.636;2022-09-21T04:54:41;10.35;;;3.30;;
70850;SDS011;58475;49.662;9.636;2022-09-21T04:57:06;10.88;;;3.17;;
70850;SDS011;58475;49.662;9.636;2022-09-21T04:59:32;7.28;;;2.78;;
70850;SDS011;58475;49.662;9.636;2022-09-21T05:01:57;8.32;;;2.55;;
70850;SDS011;58475;49.662;9.636;2022-09-21T05:04:23;14.60;;;2.30;;
70850;SDS011;58475;49.662;9.636;2022-09-21T05:06:48;13.27;;;2.67;;
70850;SDS011;58475;49.662;9.636;2022-09-21T05:09:13;12.85;;;2.25;;
70850;SDS011;58475;49.662;9.636;2022-09-21T05:11:57;8.13;;;2.30;;
70850;SDS011;58475;49.662;9.636;2022-09-21T05:14:22;5.47;;;2.80;;
70850;SDS011;58475;49.662;9.636;2022-09-21T05:16:48;6.65;;;2.78;;
70850;SDS011;58475;49.662;9.636;2022-09-21T05:19:14;7.80;;;2.40;;
70850;SDS011;58475;49.662;9.636;2022-09-21T05:21:40;6.95;;;2.20;;
70850;SDS011;58475;49.662;9.636;2022-09-21T05:24:05;6.15;;;2.65;;
70850;SDS011;58475;49.662;9.636;2022-09-21T05:26:30;8.80;;;2.40;;
70850;SDS011;58475;49.662;9.636;2022-09-21T05:28:56;6.78;;;2.50;;
70850;SDS011;58475;49.662;9.636;2022-09-21T05:31:39;7.38;;;2.80;;
70850;SDS011;58475;49.662;9.636;2022-09-21T05:36:58;9.13;;;2.50;;
70850;SDS011;58475;49.662;9.636;2022-09-21T05:39:30;5.07;;;2.28;;
70850;SDS011;58475;49.662;9.636;2022-09-21T05:41:55;7.35;;;2.50;;
70850;SDS011;58475;49.662;9.636;2022-09-21T05:44:21;7.13;;;2.53;;
70850;SDS011;58475;49.662;9.636;2022-09-21T05:46:48;7.78;;;2.42;;
70850;SDS011;58475;49.662;9.636;2022-09-21T06:00:37;8.23;;;2.35;;
70850;SDS011;58475;49.662;9.636;2022-09-21T06:05:46;6.18;;;2.60;;
70850;SDS011;58475;49.662;9.636;2022-09-21T06:08:12;14.07;;;2.70;;
70850;SDS011;58475;49.662;9.636;2022-09-21T06:10:37;7.35;;;2.33;;
70850;SDS011;58475;49.662;9.636;2022-09-21T06:13:03;6.28;;;2.47;;
70850;SDS011;58475;49.662;9.636;2022-09-21T06:15:28;8.80;;;2.80;;
70850;SDS011;58475;49.662;9.636;2022-09-21T06:17:53;5.80;;;2.72;;
70850;SDS011;58475;49.662;9.636;2022-09-21T06:20:19;10.60;;;2.80;;
70850;SDS011;58475;49.662;9.636;2022-09-21T06:22:44;5.88;;;2.70;;
70850;SDS011;58475;49.662;9.636;2022-09-21T06:25:09;6.28;;;2.45;;
70850;SDS011;58475;49.662;9.636;2022-09-21T06:27:35;6.00;;;2.70;;
70850;SDS011;58475;49.662;9.636;2022-09-21T06:30:00;13.85;;;2.70;;
70850;SDS011;58475;49.662;9.636;2022-09-21T06:32:26;5.65;;;3.10;;
70850;SDS011;58475;49.662;9.636;2022-09-21T06:34:51;5.10;;;2.35;;
70850;SDS011;58475;49.662;9.636;2022-09-21T06:37:16;5.95;;;2.40;;
70850;SDS011;58475;49.662;9.636;2022-09-21T06:39:42;5.10;;;2.47;;
70850;SDS011;58475;49.662;9.636;2022-09-21T06:42:07;6.47;;;2.30;;
70850;SDS011;58475;49.662;9.636;2022-09-21T06:44:33;5.07;;;2.20;;
70850;SDS011;58475;49.662;9.636;2022-09-21T06:46:58;4.65;;;1.95;;
70850;SDS011;58475;49.662;9.636;2022-09-21T06:49:24;7.07;;;2.20;;
70850;SDS011;58475;49.662;9.636;2022-09-21T06:51:52;4.35;;;2.17;;
70850;SDS011;58475;49.662;9.636;2022-09-21T06:54:18;7.95;;;2.67;;
70850;SDS011;58475;49.662;9.636;2022-09-21T06:56:43;5.63;;;2.50;;
70850;SDS011;58475;49.662;9.636;2022-09-21T06:59:09;4.38;;;2.15;;
70850;SDS011;58475;49.662;9.636;2022-09-21T07:01:34;4.30;;;2.17;;
70850;SDS011;58475;49.662;9.636;2022-09-21T07:04:00;4.10;;;2.13;;
70850;SDS011;58475;49.662;9.636;2022-09-21T07:06:25;4.85;;;2.20;;
70850;SDS011;58475;49.662;9.636;2022-09-21T07:08:51;4.60;;;2.40;;
70850;SDS011;58475;49.662;9.636;2022-09-21T07:11:20;4.40;;;2.08;;
70850;SDS011;58475;49.662;9.636;2022-09-21T07:13:47;5.50;;;2.20;;
70850;SDS011;58475;49.662;9.636;2022-09-21T07:16:13;4.57;;;2.30;;
70850;SDS011;58475;49.662;9.636;2022-09-21T07:18:39;3.92;;;2.20;;
70850;SDS011;58475;49.662;9.636;2022-09-21T07:21:05;4.10;;;2.20;;
70850;SDS011;58475;49.662;9.636;2022-09-21T07:23:32;6.45;;;2.50;;
70850;SDS011;58475;49.662;9.636;2022-09-21T07:26:01;4.70;;;2.45;;
70850;SDS011;58475;49.662;9.636;2022-09-21T07:28:28;6.88;;;2.42;;
70850;SDS011;58475;49.662;9.636;2022-09-21T07:30:54;4.95;;;2.53;;
70850;SDS011;58475;49.662;9.636;2022-09-21T07:33:21;4.88;;;2.40;;
70850;SDS011;58475;49.662;9.636;2022-09-21T07:35:53;5.32;;;2.63;;
70850;SDS011;58475;49.662;9.636;2022-09-21T07:38:21;5.55;;;2.42;;
70850;SDS011;58475;49.662;9.636;2022-09-21T07:40:47;5.15;;;2.60;;
70850;SDS011;58475;49.662;9.636;2022-09-21T07:43:13;4.80;;;2.60;;
70850;SDS011;58475;49.662;9.636;2022-09-21T07:45:38;6.40;;;2.83;;
70850;SDS011;58475;49.662;9.636;2022-09-21T07:48:04;5.00;;;2.40;;
70850;SDS011;58475;49.662;9.636;2022-09-21T07:50:30;5.10;;;2.70;;
70850;SDS011;58475;49.662;9.636;2022-09-21T07:52:58;4.75;;;2.72;;
70850;SDS011;58475;49.662;9.636;2022-09-21T07:55:24;5.75;;;2.85;;
70850;SDS011;58475;49.662;9.636;2022-09-21T07:57:50;5.85;;;2.90;;
70850;SDS011;58475;49.662;9.636;2022-09-21T08:00:34;6.05;;;3.20;;
70850;SDS011;58475;49.662;9.636;2022-09-21T08:03:01;6.82;;;2.92;;
70850;SDS011;58475;49.662;9.636;2022-09-21T08:05:26;5.85;;;3.05;;
70850;SDS011;58475;49.662;9.636;2022-09-21T08:07:55;5.88;;;3.08;;
70850;SDS011;58475;49.662;9.636;2022-09-21T08:10:21;6.55;;;3.05;;
70850;SDS011;58475;49.662;9.636;2022-09-21T08:12:48;5.32;;;2.83;;
70850;SDS011;58475;49.662;9.636;2022-09-21T08:15:13;5.72;;;3.15;;
70850;SDS011;58475;49.662;9.636;2022-09-21T08:17:39;5.07;;;2.63;;
70850;SDS011;58475;49.662;9.636;2022-09-21T08:20:04;5.10;;;2.63;;
70850;SDS011;58475;49.662;9.636;2022-09-21T08:22:30;5.50;;;2.83;;
70850;SDS011;58475;49.662;9.636;2022-09-21T08:24:56;6.63;;;2.92;;
70850;SDS011;58475;49.662;9.636;2022-09-21T08:27:21;5.78;;;2.65;;
70850;SDS011;58475;49.662;9.636;2022-09-21T08:29:49;5.70;;;2.90;;
70850;SDS011;58475;49.662;9.636;2022-09-21T08:32:15;6.25;;;3.00;;
70850;SDS011;58475;49.662;9.636;2022-09-21T08:34:41;5.82;;;3.15;;
70850;SDS011;58475;49.662;9.636;2022-09-21T08:37:06;5.93;;;3.00;;
70850;SDS011;58475;49.662;9.636;2022-09-21T08:39:31;5.75;;;2.92;;
70850;SDS011;58475;49.662;9.636;2022-09-21T08:50:19;12.25;;;4.90;;
70850;SDS011;58475;49.662;9.636;2022-09-21T08:52:47;6.57;;;3.13;;
70850;SDS011;58475;49.662;9.636;2022-09-21T08:55:18;6.88;;;3.42;;
70850;SDS011;58475;49.662;9.636;2022-09-21T08:57:44;5.90;;;3.03;;
70850;SDS011;58475;49.662;9.636;2022-09-21T09:00:14;6.28;;;3.03;;
70850;SDS011;58475;49.662;9.636;2022-09-21T09:02:48;4.85;;;2.70;;
70850;SDS011;58475;49.662;9.636;2022-09-21T09:13:45;9.30;;;3.65;;
70850;SDS011;58475;49.662;9.636;2022-09-21T09:19:19;4.93;;;2.75;;
70850;SDS011;58475;49.662;9.636;2022-09-21T09:21:52;7.03;;;2.97;;
70850;SDS011;58475;49.662;9.636;2022-09-21T09:30:00;5.53;;;3.30;;
70850;SDS011;58475;49.662;9.636;2022-09-21T09:32:38;5.90;;;3.22;;
70850;SDS011;58475;49.662;9.636;2022-09-21T09:35:15;10.27;;;7.87;;
70850;SDS011;58475;49.662;9.636;2022-09-21T09:37:59;5.90;;;3.20;;
70850;SDS011;58475;49.662;9.636;2022-09-21T09:43:25;4.97;;;2.60;;
70850;SDS011;58475;49.662;9.636;2022-09-21T09:45:57;5.30;;;2.80;;
70850;SDS011;58475;49.662;9.636;2022-09-21T09:53:20;4.40;;;2.50;;
70850;SDS011;58475;49.662;9.636;2022-09-21T09:55:49;4.18;;;2.50;;
70850;SDS011;58475;49.662;9.636;2022-09-21T10:00:56;4.78;;;2.47;;
70850;SDS011;58475;49.662;9.636;2022-09-21T10:03:23;4.40;;;2.47;;
70850;SDS011;58475;49.662;9.636;2022-09-21T10:05:50;6.15;;;2.80;;
70850;SDS011;58475;49.662;9.636;2022-09-21T10:10:56;6.13;;;2.70;;
70850;SDS011;58475;49.662;9.636;2022-09-21T10:13:29;5.63;;;2.95;;
70850;SDS011;58475;49.662;9.636;2022-09-21T10:16:04;6.43;;;2.95;;
70850;SDS011;58475;49.662;9.636;2022-09-21T10:18:37;7.47;;;2.60;;
70850;SDS011;58475;49.662;9.636;2022-09-21T10:21:05;4.18;;;2.17;;
70850;SDS011;58475;49.662;9.636;2022-09-21T10:23:32;5.05;;;2.53;;
70850;SDS011;58475;49.662;9.636;2022-09-21T10:26:00;5.20;;;2.50;;
70850;SDS011;58475;49.662;9.636;2022-09-21T10:28:26;4.57;;;2.42;;
70850;SDS011;58475;49.662;9.636;2022-09-21T10:31:38;4.90;;;2.45;;
70850;SDS011;58475;49.662;9.636;2022-09-21T10:33:50;4.20;;;2.30;;
70850;SDS011;58475;49.662;9.636;2022-09-21T10:40:00;5.07;;;2.60;;
70850;SDS011;58475;49.662;9.636;2022-09-21T10:42:11;3.70;;;1.98;;
70850;SDS011;58475;49.662;9.636;2022-09-21T10:44:41;3.95;;;2.15;;
70850;SDS011;58475;49.662;9.636;2022-09-21T10:47:19;4.32;;;2.20;;
70850;SDS011;58475;49.662;9.636;2022-09-21T10:49:51;3.15;;;2.00;;
70850;SDS011;58475;49.662;9.636;2022-09-21T10:52:19;4.15;;;2.22;;
70850;SDS011;58475;49.662;9.636;2022-09-21T10:54:48;3.90;;;2.20;;
70850;SDS011;58475;49.662;9.636;2022-09-21T10:57:17;5.13;;;2.10;;
70850;SDS011;58475;49.662;9.636;2022-09-21T10:59:44;4.85;;;2.25;;
70850;SDS011;58475;49.662;9.636;2022-09-21T11:02:23;3.83;;;2.13;;
70850;SDS011;58475;49.662;9.636;2022-09-21T11:04:50;4.53;;;2.40;;
70850;SDS011;58475;49.662;9.636;2022-09-21T11:07:21;4.47;;;2.20;;
70850;SDS011;58475;49.662;9.636;2022-09-21T11:10:00;3.40;;;2.00;;
70850;SDS011;58475;49.662;9.636;2022-09-21T11:20:18;5.32;;;2.20;;
70850;SDS011;58475;49.662;9.636;2022-09-21T11:26:02;7.68;;;3.88;;
70850;SDS011;58475;49.662;9.636;2022-09-21T11:45:49;5.03;;;2.00;;
70850;SDS011;58475;49.662;9.636;2022-09-21T11:53:34;5.13;;;1.90;;
70850;SDS011;58475;49.662;9.636;2022-09-21T11:58:50;3.70;;;1.60;;
70850;SDS011;58475;49.662;9.636;2022-09-21T12:04:19;4.47;;;1.90;;
70850;SDS011;58475;49.662;9.636;2022-09-21T12:14:42;2.33;;;1.40;;
70850;SDS011;58475;49.662;9.636;2022-09-21T12:17:49;2.25;;;1.38;;
70850;SDS011;58475;49.662;9.636;2022-09-21T12:20:41;2.53;;;1.50;;
70850;SDS011;58475;49.662;9.636;2022-09-21T12:23:28;2.63;;;1.40;;
70850;SDS011;58475;49.662;9.636;2022-09-21T12:26:05;3.60;;;1.40;;
70850;SDS011;58475;49.662;9.636;2022-09-21T12:28:33;2.70;;;1.30;;
70850;SDS011;58475;49.662;9.636;2022-09-21T12:33:46;2.85;;;1.50;;
70850;SDS011;58475;49.662;9.636;2022-09-21T12:36:17;1.50;;;1.25;;
70850;SDS011;58475;49.662;9.636;2022-09-21T12:38:54;1.85;;;1.10;;
70850;SDS011;58475;49.662;9.636;2022-09-21T12:41:28;2.00;;;1.20;;
70850;SDS011;58475;49.662;9.636;2022-09-21T12:44:16;3.83;;;1.48;;
70850;SDS011;58475;49.662;9.636;2022-09-21T12:46:44;3.85;;;1.30;;
70850;SDS011;58475;49.662;9.636;2022-09-21T12:49:14;4.15;;;1.30;;
70850;SDS011;58475;49.662;9.636;2022-09-21T12:51:48;2.08;;;1.23;;
70850;SDS011;58475;49.662;9.636;2022-09-21T12:54:33;2.90;;;1.42;;
70850;SDS011;58475;49.662;9.636;2022-09-21T12:57:07;2.97;;;1.33;;
70850;SDS011;58475;49.662;9.636;2022-09-21T12:59:39;2.22;;;1.23;;
70850;SDS011;58475;49.662;9.636;2022-09-21T13:02:21;1.60;;;1.30;;
70850;SDS011;58475;49.662;9.636;2022-09-21T13:05:11;2.58;;;1.52;;
70850;SDS011;58475;49.662;9.636;2022-09-21T13:10:34;2.63;;;1.48;;
70850;SDS011;58475;49.662;9.636;2022-09-21T13:13:16;1.92;;;1.30;;
70850;SDS011;58475;49.662;9.636;2022-09-21T13:16:02;3.13;;;1.33;;
70850;SDS011;58475;49.662;9.636;2022-09-21T13:20:59;1.88;;;1.10;;
70850;SDS011;58475;49.662;9.636;2022-09-21T13:23:34;2.53;;;1.42;;
70850;SDS011;58475;49.662;9.636;2022-09-21T13:26:09;2.03;;;1.30;;
70850;SDS011;58475;49.662;9.636;2022-09-21T13:33:40;3.50;;;1.73;;
70850;SDS011;58475;49.662;9.636;2022-09-21T13:36:48;3.65;;;1.38;;
70850;SDS011;58475;49.662;9.636;2022-09-21T13:39:35;3.03;;;1.33;;
70850;SDS011;58475;49.662;9.636;2022-09-21T13:42:41;4.90;;;1.45;;
70850;SDS011;58475;49.662;9.636;2022-09-21T13:45:05;1.73;;;1.20;;
70850;SDS011;58475;49.662;9.636;2022-09-21T13:47:43;2.20;;;1.20;;
70850;SDS011;58475;49.662;9.636;2022-09-21T13:53:02;2.43;;;1.20;;
70850;SDS011;58475;49.662;9.636;2022-09-21T13:55:36;2.67;;;1.27;;
70850;SDS011;58475;49.662;9.636;2022-09-21T13:58:05;2.00;;;1.30;;
70850;SDS011;58475;49.662;9.636;2022-09-21T14:00:54;2.20;;;1.30;;
70850;SDS011;58475;49.662;9.636;2022-09-21T14:03:27;1.48;;;1.17;;
70850;SDS011;58475;49.662;9.636;2022-09-21T14:06:23;4.15;;;1.15;;
70850;SDS011;58475;49.662;9.636;2022-09-21T14:09:36;1.52;;;1.10;;
70850;SDS011;58475;49.662;9.636;2022-09-21T14:11:46;1.63;;;1.25;;
70850;SDS011;58475;49.662;9.636;2022-09-21T14:14:27;3.30;;;1.50;;
70850;SDS011;58475;49.662;9.636;2022-09-21T14:16:57;2.95;;;1.40;;
70850;SDS011;58475;49.662;9.636;2022-09-21T14:22:31;2.72;;;1.30;;
70850;SDS011;58475;49.662;9.636;2022-09-21T14:24:45;2.15;;;1.25;;
70850;SDS011;58475;49.662;9.636;2022-09-21T14:30:03;1.92;;;1.20;;
70850;SDS011;58475;49.662;9.636;2022-09-21T14:32:48;3.80;;;1.40;;
70850;SDS011;58475;49.662;9.636;2022-09-21T14:35:16;1.23;;;1.10;;
70850;SDS011;58475;49.662;9.636;2022-09-21T14:37:56;2.15;;;1.30;;
70850;SDS011;58475;49.662;9.636;2022-09-21T14:40:25;1.80;;;1.20;;
70850;SDS011;58475;49.662;9.636;2022-09-21T14:42:55;2.42;;;1.30;;
70850;SDS011;58475;49.662;9.636;2022-09-21T14:45:30;1.88;;;1.30;;
70850;SDS011;58475;49.662;9.636;2022-09-21T14:48:01;3.35;;;1.50;;
70850;SDS011;58475;49.662;9.636;2022-09-21T14:50:57;2.47;;;1.20;;
70850;SDS011;58475;49.662;9.636;2022-09-21T14:53:50;2.88;;;1.30;;
70850;SDS011;58475;49.662;9.636;2022-09-21T14:57:35;2.60;;;1.40;;
70850;SDS011;58475;49.662;9.636;2022-09-21T15:02:30;2.95;;;1.38;;
70850;SDS011;58475;49.662;9.636;2022-09-21T15:10:46;2.35;;;1.40;;
70850;SDS011;58475;49.662;9.636;2022-09-21T15:19:20;2.50;;;1.50;;
70850;SDS011;58475;49.662;9.636;2022-09-21T15:21:53;2.90;;;1.50;;
70850;SDS011;58475;49.662;9.636;2022-09-21T15:24:22;1.98;;;1.40;;
70850;SDS011;58475;49.662;9.636;2022-09-21T15:27:04;2.78;;;1.60;;
70850;SDS011;58475;49.662;9.636;2022-09-21T15:29:32;2.38;;;1.40;;
70850;SDS011;58475;49.662;9.636;2022-09-21T15:31:58;2.72;;;1.60;;
70850;SDS011;58475;49.662;9.636;2022-09-21T15:34:24;2.70;;;1.35;;
70850;SDS011;58475;49.662;9.636;2022-09-21T15:36:50;3.58;;;1.40;;
70850;SDS011;58475;49.662;9.636;2022-09-21T15:39:27;2.45;;;1.40;;
70850;SDS011;58475;49.662;9.636;2022-09-21T15:44:32;2.90;;;1.40;;
70850;SDS011;58475;49.662;9.636;2022-09-21T15:46:58;2.78;;;1.50;;
70850;SDS011;58475;49.662;9.636;2022-09-21T15:49:27;3.28;;;1.50;;
70850;SDS011;58475;49.662;9.636;2022-09-21T15:51:54;1.80;;;1.40;;
70850;SDS011;58475;49.662;9.636;2022-09-21T15:57:05;3.13;;;1.50;;
70850;SDS011;58475;49.662;9.636;2022-09-21T15:59:48;2.95;;;1.42;;
70850;SDS011;58475;49.662;9.636;2022-09-21T16:02:15;2.33;;;1.38;;
70850;SDS011;58475;49.662;9.636;2022-09-21T16:04:44;2.20;;;1.48;;
70850;SDS011;58475;49.662;9.636;2022-09-21T16:07:31;3.65;;;1.70;;
70850;SDS011;58475;49.662;9.636;2022-09-21T16:09:59;2.97;;;1.50;;
70850;SDS011;58475;49.662;9.636;2022-09-21T16:14:51;2.58;;;1.60;;
70850;SDS011;58475;49.662;9.636;2022-09-21T16:17:24;3.70;;;1.60;;
70850;SDS011;58475;49.662;9.636;2022-09-21T16:24:49;2.17;;;1.60;;
70850;SDS011;58475;49.662;9.636;2022-09-21T16:27:18;2.13;;;1.35;;
70850;SDS011;58475;49.662;9.636;2022-09-21T16:29:46;3.03;;;1.40;;
70850;SDS011;58475;49.662;9.636;2022-09-21T16:34:42;2.88;;;1.70;;
70850;SDS011;58475;49.662;9.636;2022-09-21T16:37:26;4.25;;;1.55;;
70850;SDS011;58475;49.662;9.636;2022-09-21T16:39:56;3.45;;;1.40;;
70850;SDS011;58475;49.662;9.636;2022-09-21T16:42:23;2.70;;;1.38;;
70850;SDS011;58475;49.662;9.636;2022-09-21T16:44:52;4.88;;;1.70;;
70850;SDS011;58475;49.662;9.636;2022-09-21T16:47:22;2.50;;;1.60;;
70850;SDS011;58475;49.662;9.636;2022-09-21T16:49:49;3.95;;;1.70;;
70850;SDS011;58475;49.662;9.636;2022-09-21T16:52:23;6.05;;;2.63;;
70850;SDS011;58475;49.662;9.636;2022-09-21T16:54:49;9.98;;;3.00;;
70850;SDS011;58475;49.662;9.636;2022-09-21T16:57:15;9.88;;;2.97;;
70850;SDS011;58475;49.662;9.636;2022-09-21T16:59:41;7.28;;;3.80;;
70850;SDS011;58475;49.662;9.636;2022-09-21T17:02:08;6.05;;;3.10;;
70850;SDS011;58475;49.662;9.636;2022-09-21T17:04:35;6.57;;;2.60;;
70850;SDS011;58475;49.662;9.636;2022-09-21T17:07:00;4.10;;;2.00;;
70850;SDS011;58475;49.662;9.636;2022-09-21T17:09:30;4.40;;;2.10;;
70850;SDS011;58475;49.662;9.636;2022-09-21T17:12:02;3.90;;;2.17;;
70850;SDS011;58475;49.662;9.636;2022-09-21T17:14:33;6.10;;;2.83;;
70850;SDS011;58475;49.662;9.636;2022-09-21T17:19:32;7.97;;;2.85;;
70850;SDS011;58475;49.662;9.636;2022-09-21T17:22:00;5.97;;;2.70;;
70850;SDS011;58475;49.662;9.636;2022-09-21T17:24:27;5.82;;;2.70;;
70850;SDS011;58475;49.662;9.636;2022-09-21T17:26:52;5.53;;;2.70;;
70850;SDS011;58475;49.662;9.636;2022-09-21T17:29:22;6.68;;;3.00;;
70850;SDS011;58475;49.662;9.636;2022-09-21T17:31:55;5.45;;;2.13;;
70850;SDS011;58475;49.662;9.636;2022-09-21T17:34:23;4.47;;;2.50;;
70850;SDS011;58475;49.662;9.636;2022-09-21T17:36:58;4.53;;;2.35;;
70850;SDS011;58475;49.662;9.636;2022-09-21T17:39:24;5.95;;;3.28;;
70850;SDS011;58475;49.662;9.636;2022-09-21T17:41:56;9.27;;;5.53;;
70850;SDS011;58475;49.662;9.636;2022-09-21T17:44:44;9.27;;;5.85;;
70850;SDS011;58475;49.662;9.636;2022-09-21T17:49:45;7.20;;;4.40;;
70850;SDS011;58475;49.662;9.636;2022-09-21T17:52:15;9.90;;;5.53;;
70850;SDS011;58475;49.662;9.636;2022-09-21T17:55:01;7.28;;;4.47;;
70850;SDS011;58475;49.662;9.636;2022-09-21T18:02:47;5.55;;;2.13;;
70850;SDS011;58475;49.662;9.636;2022-09-21T18:05:16;4.63;;;2.25;;
70850;SDS011;58475;49.662;9.636;2022-09-21T18:07:49;5.13;;;2.63;;
70850;SDS011;58475;49.662;9.636;2022-09-21T18:10:16;5.07;;;2.42;;
70850;SDS011;58475;49.662;9.636;2022-09-21T18:18:18;5.28;;;2.97;;